createdAt,value
2022-12-24T00:01:21.667Z,79.24
2022-12-24T00:03:48.849Z,78.56
2022-12-24T00:06:23.570Z,79.44
2022-12-24T00:08:53.791Z,79.52
2022-12-24T00:11:21.643Z,79.49
2022-12-24T00:13:49.213Z,79.73
2022-12-24T00:16:16.574Z,79.18
2022-12-24T00:18:46.149Z,79.18
2022-12-24T00:21:15.843Z,79.05
2022-12-24T00:23:43.379Z,78.75
2022-12-24T00:26:10.719Z,79.11
2022-12-24T00:28:37.867Z,78.41
2022-12-24T00:31:13.500Z,80.05
2022-12-24T00:33:40.876Z,79.03
2022-12-24T00:36:09.472Z,79.79
2022-12-24T00:38:37.035Z,78.84
2022-12-24T00:41:06.574Z,79.01
2022-12-24T00:43:33.560Z,78.53
2022-12-24T00:46:00.611Z,79.45
2022-12-24T00:48:27.780Z,79.12
2022-12-24T00:50:54.852Z,79.14
2022-12-24T00:56:10.382Z,78.64
2022-12-24T00:58:37.648Z,78.30
2022-12-24T01:01:05.611Z,77.81
2022-12-24T01:03:36.259Z,78.41
2022-12-24T01:06:18.924Z,78.60
2022-12-24T01:08:46.375Z,78.56
2022-12-24T01:11:13.730Z,78.38
2022-12-24T01:13:40.921Z,78.44
2022-12-24T01:16:20.394Z,77.85
2022-12-24T01:18:47.710Z,77.79
2022-12-24T01:21:15.913Z,77.21
2022-12-24T01:23:42.944Z,76.61
2022-12-24T01:26:12.410Z,76.36
2022-12-24T01:28:39.842Z,76.72
2022-12-24T01:31:17.333Z,76.61
2022-12-24T01:33:45.107Z,77.25
2022-12-24T01:36:13.517Z,77.52
2022-12-24T01:38:41.300Z,77.69
2022-12-24T01:46:09.714Z,77.41
2022-12-24T01:48:48.949Z,77.21
2022-12-24T01:51:30.564Z,76.88
2022-12-24T01:54:07.606Z,76.72
2022-12-24T01:56:39.868Z,77.21
2022-12-24T01:59:15.034Z,76.97
2022-12-24T02:01:42.198Z,76.04
2022-12-24T02:04:34.354Z,76.43
2022-12-24T02:07:01.815Z,77.23
2022-12-24T02:09:29.041Z,77.05
2022-12-24T02:11:57.239Z,77.18
2022-12-24T02:14:26.457Z,76.82
2022-12-24T02:17:14.783Z,76.42
2022-12-24T02:20:25.426Z,76.50
2022-12-24T02:23:18.845Z,75.89
2022-12-24T02:26:06.912Z,76.45
2022-12-24T02:29:31.322Z,75.37
2022-12-24T02:32:45.113Z,75.96
2022-12-24T02:35:45.279Z,76.26
2022-12-24T02:38:22.439Z,76.70
2022-12-24T02:41:19.332Z,76.91
2022-12-24T02:43:49.443Z,76.63
2022-12-24T02:46:24.702Z,77.04
2022-12-24T02:48:52.589Z,77.76
2022-12-24T02:51:24.932Z,78.09
2022-12-24T02:53:52.426Z,78.73
2022-12-24T02:56:31.961Z,78.43
2022-12-24T02:59:43.791Z,78.29
2022-12-24T03:02:36.027Z,78.00
2022-12-24T03:05:34.078Z,78.37
2022-12-24T03:08:13.187Z,78.41
2022-12-24T03:11:11.447Z,78.27
2022-12-24T03:13:38.789Z,77.33
2022-12-24T03:16:13.137Z,77.50
2022-12-24T03:18:46.283Z,78.10
2022-12-24T03:21:29.509Z,77.40
2022-12-24T03:23:57.467Z,77.78
2022-12-24T03:26:26.875Z,77.74
2022-12-24T03:28:54.149Z,77.96
2022-12-24T03:31:21.469Z,77.61
2022-12-24T03:33:49.863Z,77.09
2022-12-24T03:36:17.144Z,77.60
2022-12-24T03:38:44.493Z,78.20
2022-12-24T03:41:11.462Z,77.08
2022-12-24T03:43:38.545Z,76.31
2022-12-24T03:46:07.949Z,77.08
2022-12-24T03:48:36.243Z,77.11
2022-12-24T03:51:04.305Z,77.14
2022-12-24T03:53:31.791Z,76.72
2022-12-24T03:55:59.138Z,77.31
2022-12-24T03:58:26.139Z,77.85
2022-12-24T04:00:54.450Z,76.86
2022-12-24T04:03:21.641Z,76.12
2022-12-24T04:05:48.760Z,76.77
2022-12-24T04:08:15.965Z,77.01
2022-12-24T04:10:42.875Z,76.34
2022-12-24T04:13:09.977Z,76.27
2022-12-24T04:15:37.059Z,76.48
2022-12-24T04:18:04.259Z,76.67
2022-12-24T04:20:31.218Z,76.94
2022-12-24T04:22:58.421Z,76.37
2022-12-24T04:25:25.392Z,76.86
2022-12-24T04:27:52.354Z,75.91
2022-12-24T04:30:19.670Z,76.81
2022-12-24T04:32:46.598Z,76.04
2022-12-24T04:35:13.684Z,76.60
2022-12-24T04:37:40.783Z,75.93
2022-12-24T04:40:08.916Z,75.83
2022-12-24T04:42:36.021Z,75.90
2022-12-24T04:45:03.121Z,76.29
2022-12-24T04:47:30.118Z,76.79
2022-12-24T04:49:57.224Z,76.51
2022-12-24T04:52:24.182Z,76.82
2022-12-24T04:54:51.118Z,76.94
2022-12-24T04:57:18.260Z,76.20
2022-12-24T04:59:45.185Z,76.33
2022-12-24T05:02:12.381Z,75.46
2022-12-24T05:04:39.625Z,76.58
2022-12-24T05:07:06.593Z,76.90
2022-12-24T05:09:33.631Z,76.86
2022-12-24T05:12:00.648Z,77.61
2022-12-24T05:14:27.611Z,77.17
2022-12-24T05:16:54.711Z,77.11
2022-12-24T05:19:21.735Z,77.03
2022-12-24T05:22:08.687Z,77.80
2022-12-24T05:24:54.055Z,77.77
2022-12-24T05:27:21.695Z,77.85
2022-12-24T05:29:48.650Z,78.07
2022-12-24T05:32:15.782Z,78.66
2022-12-24T05:34:43.120Z,78.82
2022-12-24T05:37:10.157Z,79.01
2022-12-24T05:39:37.093Z,79.05
2022-12-24T05:42:04.598Z,79.31
2022-12-24T05:44:31.552Z,79.72
2022-12-24T05:46:58.616Z,79.39
2022-12-24T05:49:25.720Z,79.69
2022-12-24T05:51:52.665Z,79.70
2022-12-24T05:54:19.642Z,79.76
2022-12-24T05:56:46.878Z,80.32
2022-12-24T05:59:13.876Z,79.41
2022-12-24T06:01:41.010Z,79.32
2022-12-24T06:04:08.199Z,79.38
2022-12-24T06:06:35.331Z,79.77
2022-12-24T06:09:02.292Z,80.14
2022-12-24T06:11:30.178Z,80.18
2022-12-24T06:13:57.475Z,80.11
2022-12-24T06:16:26.225Z,80.03
2022-12-24T06:18:55.177Z,81.40
2022-12-24T06:21:22.305Z,81.34
2022-12-24T06:23:49.293Z,80.69
2022-12-24T06:26:23.038Z,80.62
2022-12-24T06:28:50.770Z,80.05
2022-12-24T06:31:20.437Z,80.48
2022-12-24T06:33:48.765Z,79.53
2022-12-24T06:36:19.759Z,79.60
2022-12-24T06:38:48.239Z,79.74
2022-12-24T06:41:16.619Z,79.72
2022-12-24T06:43:48.805Z,79.31
2022-12-24T06:46:16.201Z,80.05
2022-12-24T06:48:44.871Z,80.06
2022-12-24T06:51:14.305Z,79.79
2022-12-24T06:53:41.287Z,79.30
2022-12-24T06:56:11.045Z,80.04
2022-12-24T06:58:39.260Z,79.47
2022-12-24T07:01:08.392Z,80.23
2022-12-24T07:03:35.838Z,79.47
2022-12-24T07:06:03.286Z,79.63
2022-12-24T07:08:33.566Z,80.23
2022-12-24T07:11:01.200Z,80.45
2022-12-24T07:13:29.329Z,80.51
2022-12-24T07:16:01.812Z,79.86
2022-12-24T07:18:30.151Z,80.64
2022-12-24T07:20:57.593Z,80.20
2022-12-24T07:23:25.239Z,80.29
2022-12-24T07:25:52.417Z,79.57
2022-12-24T07:28:24.052Z,78.98
2022-12-24T07:30:55.935Z,79.99
2022-12-24T07:33:23.860Z,79.26
2022-12-24T07:36:06.424Z,79.45
2022-12-24T07:38:34.720Z,78.51
2022-12-24T07:41:01.781Z,78.83
2022-12-24T07:43:29.171Z,79.35
2022-12-24T07:45:58.182Z,79.43
2022-12-24T07:48:27.431Z,79.19
2022-12-24T07:50:55.095Z,79.38
2022-12-24T07:53:24.167Z,79.08
2022-12-24T07:55:51.631Z,78.74
2022-12-24T07:58:19.534Z,78.64
2022-12-24T08:00:46.498Z,79.36
2022-12-24T08:03:19.649Z,78.66
2022-12-24T08:05:48.151Z,78.09
2022-12-24T08:08:15.493Z,78.14
2022-12-24T08:10:45.272Z,76.86
2022-12-24T08:13:13.575Z,76.67
2022-12-24T08:15:40.774Z,76.35
2022-12-24T08:18:08.712Z,75.46
2022-12-24T08:20:39.617Z,75.82
2022-12-24T08:23:11.678Z,75.31
2022-12-24T08:25:44.267Z,75.89
2022-12-24T08:28:12.195Z,75.73
2022-12-24T08:30:39.291Z,75.59
2022-12-24T08:33:06.360Z,75.71
2022-12-24T08:35:33.331Z,74.90
2022-12-24T08:38:00.394Z,74.96
2022-12-24T08:40:27.910Z,75.01
2022-12-24T08:42:55.193Z,74.78
2022-12-24T08:45:22.368Z,75.18
2022-12-24T08:47:49.382Z,74.71
2022-12-24T08:50:16.595Z,75.19
2022-12-24T08:52:43.593Z,74.19
2022-12-24T08:55:10.564Z,74.25
2022-12-24T08:57:38.074Z,74.83
2022-12-24T09:00:06.962Z,73.98
2022-12-24T09:02:34.249Z,74.06
2022-12-24T09:05:01.523Z,73.79
2022-12-24T09:07:28.521Z,73.51
2022-12-24T09:09:55.680Z,73.41
2022-12-24T09:12:22.665Z,73.45
2022-12-24T09:14:51.845Z,73.54
2022-12-24T09:17:18.988Z,73.39
2022-12-24T09:19:46.530Z,73.47
2022-12-24T09:22:14.733Z,73.08
2022-12-24T09:24:41.732Z,73.86
2022-12-24T09:27:08.850Z,73.26
2022-12-24T09:29:36.713Z,73.72
2022-12-24T09:32:04.300Z,73.57
2022-12-24T09:34:31.455Z,73.92
2022-12-24T09:37:00.131Z,73.26
2022-12-24T09:39:27.079Z,72.65
2022-12-24T09:42:19.588Z,71.77
2022-12-24T09:45:16.551Z,72.53
2022-12-24T09:47:54.321Z,71.14
2022-12-24T09:50:36.194Z,70.88
2022-12-24T09:53:18.478Z,71.94
2022-12-24T09:55:51.443Z,72.69
2022-12-24T09:58:38.639Z,71.39
2022-12-24T10:01:06.119Z,71.14
2022-12-24T10:03:33.208Z,70.95
2022-12-24T10:06:26.838Z,71.09
2022-12-24T10:09:36.486Z,70.98
2022-12-24T10:12:56.542Z,72.23
2022-12-24T10:15:40.005Z,70.04
2022-12-24T10:18:16.482Z,70.79
2022-12-24T10:21:15.767Z,70.93
2022-12-24T10:24:18.403Z,70.66
2022-12-24T10:26:57.830Z,69.40
2022-12-24T10:29:31.141Z,70.39
2022-12-24T10:32:19.636Z,70.82
2022-12-24T10:35:08.320Z,71.63
2022-12-24T10:37:35.417Z,70.60
2022-12-24T10:40:03.951Z,71.19
2022-12-24T10:42:50.554Z,71.05
2022-12-24T10:45:22.931Z,71.06
2022-12-24T10:47:57.035Z,71.46
2022-12-24T10:50:41.082Z,70.80
2022-12-24T10:53:30.043Z,70.51
2022-12-24T10:56:23.303Z,70.88
2022-12-24T10:58:55.814Z,71.32
2022-12-24T11:01:47.581Z,70.05
2022-12-24T11:04:21.605Z,70.13
2022-12-24T11:07:01.133Z,70.76
2022-12-24T11:09:43.527Z,71.02
2022-12-24T11:12:25.924Z,70.58
2022-12-24T11:15:06.977Z,70.30
2022-12-24T11:17:34.691Z,70.87
2022-12-24T11:20:04.038Z,69.17
2022-12-24T11:22:33.243Z,70.04
2022-12-24T11:25:01.608Z,69.51
2022-12-24T11:27:40.254Z,70.55
2022-12-24T11:30:32.074Z,70.48
2022-12-24T11:33:01.935Z,70.09
2022-12-24T11:35:32.026Z,69.07
2022-12-24T11:38:02.088Z,69.96
2022-12-24T11:40:46.296Z,69.35
2022-12-24T11:43:22.055Z,69.68
2022-12-24T11:45:57.736Z,70.70
2022-12-24T11:48:31.099Z,70.13
2022-12-24T11:51:27.430Z,69.73
2022-12-24T11:54:24.158Z,69.93
2022-12-24T11:56:54.985Z,70.53
2022-12-24T11:59:44.072Z,70.48
2022-12-24T12:02:37.403Z,70.66
2022-12-24T12:05:22.331Z,70.55
2022-12-24T12:07:54.958Z,71.36
2022-12-24T12:10:32.375Z,72.09
2022-12-24T12:13:43.474Z,71.52
2022-12-24T12:17:11.285Z,70.28
2022-12-24T12:19:52.732Z,71.89
2022-12-24T12:22:35.097Z,71.00
2022-12-24T12:25:04.498Z,70.54
2022-12-24T12:27:42.641Z,70.72
2022-12-24T12:30:18.025Z,70.68
2022-12-24T12:33:25.033Z,70.95
2022-12-24T12:35:54.080Z,69.82
2022-12-24T12:38:29.220Z,72.72
2022-12-24T12:41:20.439Z,71.21
2022-12-24T12:44:19.729Z,71.45
2022-12-24T12:47:14.244Z,72.05
2022-12-24T12:50:01.119Z,72.40
2022-12-24T12:52:42.846Z,72.50
2022-12-24T12:55:48.950Z,72.60
2022-12-24T12:58:58.710Z,72.04
2022-12-24T13:01:47.406Z,71.95
2022-12-24T13:05:15.294Z,71.25
2022-12-24T13:08:11.273Z,71.16
2022-12-24T13:11:20.476Z,70.51
2022-12-24T13:14:27.585Z,69.14
2022-12-24T13:17:13.014Z,70.05
2022-12-24T13:20:24.646Z,70.41
2022-12-24T13:22:58.553Z,69.03
2022-12-24T13:25:56.300Z,68.37
2022-12-24T13:28:23.185Z,68.28
2022-12-24T13:31:24.641Z,68.96
2022-12-24T13:33:55.268Z,69.79
2022-12-24T13:36:23.289Z,70.10
2022-12-24T13:38:57.260Z,70.44
2022-12-24T13:41:38.783Z,69.73
2022-12-24T13:44:16.388Z,70.19
2022-12-24T13:47:25.341Z,69.83
2022-12-24T13:50:12.325Z,70.78
2022-12-24T13:52:42.705Z,70.72
2022-12-24T13:55:16.804Z,70.98
2022-12-24T13:58:03.980Z,71.33
2022-12-24T14:00:34.092Z,71.31
2022-12-24T14:03:13.232Z,71.25
2022-12-24T14:05:43.248Z,71.01
2022-12-24T14:08:16.751Z,71.12
2022-12-24T14:11:16.560Z,71.97
2022-12-24T14:13:46.657Z,71.86
2022-12-24T14:16:16.612Z,71.71
2022-12-24T14:18:57.612Z,71.64
2022-12-24T14:21:32.035Z,71.52
2022-12-24T14:24:14.173Z,72.25
2022-12-24T14:27:14.351Z,71.96
2022-12-24T14:30:10.235Z,71.79
2022-12-24T14:32:40.304Z,72.27
2022-12-24T14:35:26.195Z,72.37
2022-12-24T14:38:07.023Z,72.28
2022-12-24T14:41:18.601Z,72.28
2022-12-24T14:44:28.525Z,71.34
2022-12-24T14:47:45.767Z,70.86
2022-12-24T14:50:51.151Z,70.43
2022-12-24T14:53:34.505Z,69.89
2022-12-24T14:56:14.532Z,70.07
2022-12-24T14:58:45.313Z,69.76
2022-12-24T15:01:28.759Z,70.28
2022-12-24T15:04:14.272Z,70.90
2022-12-24T15:06:56.749Z,71.00
2022-12-24T15:09:31.794Z,71.04
2022-12-24T15:12:03.894Z,71.78
2022-12-24T15:14:44.170Z,71.03
2022-12-24T15:17:13.308Z,71.49
2022-12-24T15:19:44.258Z,71.51
2022-12-24T15:22:31.218Z,71.48
2022-12-24T15:24:58.423Z,71.52
2022-12-24T15:27:32.738Z,70.76
2022-12-24T15:30:14.247Z,72.12
2022-12-24T15:32:41.391Z,71.11
2022-12-24T15:35:48.206Z,71.47
2022-12-24T15:38:36.151Z,71.94
2022-12-24T15:41:14.736Z,71.84
2022-12-24T15:43:43.120Z,71.73
2022-12-24T15:46:10.218Z,71.92
2022-12-24T15:48:38.360Z,72.98
2022-12-24T15:51:06.442Z,72.32
2022-12-24T15:53:41.133Z,72.59
2022-12-24T15:56:37.081Z,73.82
2022-12-24T15:59:17.773Z,73.13
2022-12-24T16:01:46.997Z,73.69
2022-12-24T16:04:32.240Z,74.38
2022-12-24T16:07:02.827Z,74.02
2022-12-24T16:09:35.852Z,73.61
2022-12-24T16:12:04.152Z,74.41
2022-12-24T16:14:33.576Z,74.41
2022-12-24T16:17:00.678Z,73.27
2022-12-24T16:19:39.697Z,74.73
2022-12-24T16:22:26.402Z,74.74
2022-12-24T16:24:55.476Z,75.34
2022-12-24T16:27:22.667Z,74.35
2022-12-24T16:29:50.358Z,74.59
2022-12-24T16:32:34.441Z,75.55
2022-12-24T16:35:05.894Z,74.93
2022-12-24T16:37:32.835Z,74.42
2022-12-24T16:40:00.953Z,74.41
2022-12-24T16:42:46.521Z,74.30
2022-12-24T16:45:13.527Z,75.85
2022-12-24T16:47:43.193Z,74.95
2022-12-24T16:50:16.920Z,75.16
2022-12-24T16:52:44.479Z,75.29
2022-12-24T16:55:14.718Z,75.48
2022-12-24T16:57:43.287Z,75.40
2022-12-24T17:00:19.881Z,75.58
2022-12-24T17:02:50.681Z,76.24
2022-12-24T17:05:24.315Z,76.10
2022-12-24T17:07:51.707Z,76.44
2022-12-24T17:10:19.071Z,75.60
2022-12-24T17:12:46.089Z,75.37
2022-12-24T17:15:13.488Z,75.95
2022-12-24T17:17:40.578Z,77.40
2022-12-24T17:20:08.524Z,77.63
2022-12-24T17:22:37.032Z,77.85
2022-12-24T17:25:05.591Z,77.47
2022-12-24T17:27:34.051Z,77.46
2022-12-24T17:30:01.191Z,77.55
2022-12-24T17:32:28.475Z,77.83
2022-12-24T17:34:55.499Z,77.49
2022-12-24T17:37:22.561Z,77.45
2022-12-24T17:39:49.529Z,77.54
2022-12-24T17:42:16.459Z,78.53
2022-12-24T17:44:43.543Z,78.64
2022-12-24T17:47:11.163Z,77.46
2022-12-24T17:49:38.244Z,77.40
2022-12-24T17:52:05.552Z,77.27
2022-12-24T17:54:32.528Z,77.76
2022-12-24T17:56:59.657Z,76.63
2022-12-24T17:59:26.697Z,76.49
2022-12-24T18:01:53.868Z,77.23
2022-12-24T18:04:20.993Z,77.76
2022-12-24T18:06:49.739Z,78.86
2022-12-24T18:09:17.330Z,78.59
2022-12-24T18:11:44.611Z,78.39
2022-12-24T18:14:14.204Z,78.36
2022-12-24T18:16:42.790Z,79.68
2022-12-24T18:19:12.623Z,80.51
2022-12-24T18:21:40.073Z,81.47
2022-12-24T18:24:07.897Z,81.39
2022-12-24T18:26:35.055Z,81.41
2022-12-24T18:29:06.188Z,81.91
2022-12-24T18:31:34.294Z,82.37
2022-12-24T18:34:04.376Z,81.84
2022-12-24T18:36:31.615Z,82.08
2022-12-24T18:38:59.224Z,82.44
2022-12-24T18:41:29.658Z,82.28
2022-12-24T18:43:58.472Z,82.26
2022-12-24T18:46:32.831Z,82.16
2022-12-24T18:49:01.472Z,81.82
2022-12-24T18:51:33.081Z,81.55
2022-12-24T18:54:00.137Z,81.55
2022-12-24T18:56:27.760Z,81.67
2022-12-24T18:58:58.223Z,80.24
2022-12-24T19:01:32.327Z,78.52
2022-12-24T19:04:00.842Z,76.59
2022-12-24T19:06:28.180Z,75.93
2022-12-24T19:08:58.909Z,76.62
2022-12-24T19:11:29.720Z,78.23
2022-12-24T19:13:58.379Z,78.89
2022-12-24T19:16:26.564Z,78.37
2022-12-24T19:18:54.951Z,77.73
2022-12-24T19:21:22.028Z,79.70
2022-12-24T19:23:49.542Z,78.51
2022-12-24T19:26:18.854Z,77.48
2022-12-24T19:28:46.587Z,77.26
2022-12-24T19:31:20.210Z,76.91
2022-12-24T19:33:51.389Z,76.44
2022-12-24T19:36:25.790Z,77.21
2022-12-24T19:38:53.155Z,76.43
2022-12-24T19:41:25.342Z,75.99
2022-12-24T19:43:57.337Z,76.17
2022-12-24T19:46:28.322Z,75.42
2022-12-24T19:48:59.249Z,76.40
2022-12-24T19:51:27.855Z,74.83
2022-12-24T19:53:57.456Z,76.41
2022-12-24T19:56:26.988Z,75.57
2022-12-24T19:58:57.385Z,75.70
2022-12-24T20:01:28.112Z,76.95
2022-12-24T20:03:56.678Z,77.21
2022-12-24T20:06:28.861Z,77.22
2022-12-24T20:09:01.621Z,77.40
2022-12-24T20:11:28.951Z,78.00
2022-12-24T20:14:02.685Z,78.06
2022-12-24T20:16:30.685Z,78.64
2022-12-24T20:19:04.737Z,78.36
2022-12-24T20:21:32.737Z,77.48
2022-12-24T20:23:59.821Z,78.73
2022-12-24T20:26:29.531Z,80.01
2022-12-24T20:28:56.764Z,78.93
2022-12-24T20:31:30.017Z,77.84
2022-12-24T20:34:00.120Z,77.21
2022-12-24T20:36:29.458Z,79.06
2022-12-24T20:38:57.895Z,78.35
2022-12-24T20:41:27.633Z,78.07
2022-12-24T20:43:56.679Z,78.95
2022-12-24T20:46:24.321Z,80.60
2022-12-24T20:48:51.795Z,78.82
2022-12-24T20:51:25.477Z,78.65
2022-12-24T20:53:59.467Z,80.22
2022-12-24T20:56:26.791Z,80.12
2022-12-24T20:58:54.040Z,80.59
2022-12-24T21:01:25.013Z,80.35
2022-12-24T21:03:54.089Z,77.87
2022-12-24T21:06:22.243Z,78.11
2022-12-24T21:08:50.963Z,80.11
2022-12-24T21:11:37.278Z,80.42
2022-12-24T21:14:04.669Z,81.36
2022-12-24T21:16:33.112Z,81.02
2022-12-24T21:19:00.527Z,78.10
2022-12-24T21:21:27.568Z,79.36
2022-12-24T21:23:55.455Z,78.97
2022-12-24T21:26:22.752Z,77.53
2022-12-24T21:28:50.455Z,77.09
2022-12-24T21:31:18.004Z,77.66
2022-12-24T21:33:45.171Z,78.29
2022-12-24T21:36:14.993Z,81.38
2022-12-24T21:38:42.584Z,80.66
2022-12-24T21:41:16.567Z,80.33
2022-12-24T21:43:44.614Z,81.89
2022-12-24T21:46:18.717Z,80.82
2022-12-24T21:49:04.824Z,81.38
2022-12-24T21:51:32.712Z,81.43
2022-12-24T21:54:18.499Z,82.39
2022-12-24T21:57:04.684Z,82.91
2022-12-24T21:59:31.679Z,82.03
2022-12-24T22:01:59.225Z,83.14
2022-12-24T22:04:26.758Z,82.83
2022-12-24T22:07:12.650Z,81.41
2022-12-24T22:09:58.579Z,79.74
2022-12-24T22:12:30.508Z,79.59
2022-12-24T22:14:57.948Z,81.06
2022-12-24T22:17:26.037Z,82.50
2022-12-24T22:19:55.015Z,82.65
2022-12-24T22:22:23.240Z,82.13
2022-12-24T22:24:50.509Z,82.39
2022-12-24T22:27:17.487Z,82.04
2022-12-24T22:29:44.788Z,82.80
2022-12-24T22:32:11.787Z,81.89
2022-12-24T22:34:38.765Z,80.97
2022-12-24T22:37:05.729Z,81.20
2022-12-24T22:39:32.811Z,81.76
2022-12-24T22:41:59.734Z,80.84
2022-12-24T22:44:27.151Z,79.99
2022-12-24T22:46:54.503Z,81.70
2022-12-24T22:49:21.651Z,82.17
2022-12-24T22:51:48.601Z,81.73
2022-12-24T22:54:16.098Z,82.26
2022-12-24T22:56:43.222Z,81.50
2022-12-24T22:59:13.860Z,81.63
2022-12-24T23:01:44.721Z,80.49
2022-12-24T23:04:12.631Z,81.61
2022-12-24T23:06:40.314Z,82.26
2022-12-24T23:09:10.556Z,80.48
2022-12-24T23:11:37.607Z,80.47
2022-12-24T23:14:23.480Z,82.27
2022-12-24T23:16:50.588Z,82.82
2022-12-24T23:19:17.545Z,81.43
2022-12-24T23:21:44.761Z,82.06
2022-12-24T23:24:11.831Z,81.42
2022-12-24T23:26:38.844Z,80.46
2022-12-24T23:29:06.548Z,80.45
2022-12-24T23:31:34.912Z,82.62
2022-12-24T23:34:02.129Z,81.63
2022-12-24T23:36:29.947Z,81.31
2022-12-24T23:38:57.623Z,83.48
2022-12-24T23:41:24.705Z,82.44
2022-12-24T23:43:51.918Z,82.97
2022-12-24T23:46:20.262Z,81.09
2022-12-24T23:48:48.174Z,80.80
2022-12-24T23:51:23.675Z,81.20
2022-12-24T23:53:53.385Z,79.59
2022-12-24T23:56:22.114Z,82.90
2022-12-24T23:58:49.305Z,82.40
